createdAt,value
2019-03-19T00:00:25.826Z,0.00
2019-03-19T00:01:25.742Z,0.00
2019-03-19T00:02:25.660Z,0.00
2019-03-19T00:03:25.573Z,0.00
2019-03-19T00:04:25.494Z,0.00
2019-03-19T00:05:25.412Z,0.00
2019-03-19T00:06:25.321Z,0.00
2019-03-19T00:07:25.237Z,0.00
2019-03-19T00:08:25.152Z,0.00
2019-03-19T00:09:25.069Z,0.00
2019-03-19T00:10:24.985Z,0.00
2019-03-19T00:11:25.004Z,0.00
2019-03-19T00:12:24.815Z,0.00
2019-03-19T00:13:24.732Z,0.00
2019-03-19T00:14:24.649Z,0.00
2019-03-19T00:15:24.572Z,0.00
2019-03-19T00:16:24.479Z,0.00
2019-03-19T00:17:24.396Z,0.00
2019-03-19T00:18:24.338Z,0.00
2019-03-19T00:19:24.231Z,0.00
2019-03-19T00:20:24.144Z,0.00
2019-03-19T00:21:24.059Z,0.00
2019-03-19T00:22:25.747Z,0.00
2019-03-19T00:23:23.892Z,0.00
2019-03-19T00:24:23.806Z,0.00
2019-03-19T00:25:30.033Z,0.00
2019-03-19T00:26:23.640Z,0.00
2019-03-19T00:27:23.558Z,0.00
2019-03-19T00:28:23.471Z,0.00
2019-03-19T00:29:23.388Z,0.00
2019-03-19T00:30:23.308Z,0.00
2019-03-19T00:31:23.220Z,0.00
2019-03-19T00:32:23.135Z,0.00
2019-03-19T00:33:23.059Z,0.00
2019-03-19T00:34:22.967Z,0.00
2019-03-19T00:35:22.883Z,0.00
2019-03-19T00:36:22.799Z,0.00
2019-03-19T00:37:22.714Z,0.00
2019-03-19T00:38:22.631Z,0.00
2019-03-19T00:39:22.547Z,0.00
2019-03-19T00:40:22.463Z,0.00
2019-03-19T00:41:22.379Z,0.00
2019-03-19T00:42:22.296Z,0.00
2019-03-19T00:43:22.211Z,0.00
2019-03-19T00:44:22.127Z,0.00
2019-03-19T00:45:22.044Z,0.00
2019-03-19T00:46:21.959Z,0.00
2019-03-19T00:47:21.874Z,0.00
2019-03-19T00:48:21.791Z,0.00
2019-03-19T00:49:21.707Z,0.00
2019-03-19T00:50:21.623Z,0.00
2019-03-19T00:51:21.539Z,0.00
2019-03-19T00:52:21.454Z,0.00
2019-03-19T00:53:21.371Z,0.00
2019-03-19T00:54:21.287Z,0.00
2019-03-19T00:55:21.203Z,0.00
2019-03-19T00:56:21.125Z,0.00
2019-03-19T00:57:21.034Z,0.00
2019-03-19T00:58:20.951Z,0.00
2019-03-19T00:59:20.867Z,0.00
2019-03-19T01:00:20.782Z,0.00
2019-03-19T01:01:20.699Z,0.00
2019-03-19T01:02:20.615Z,0.00
2019-03-19T01:03:20.547Z,0.00
2019-03-19T01:04:20.446Z,0.00
2019-03-19T01:05:20.364Z,0.00
2019-03-19T01:06:20.278Z,0.00
2019-03-19T01:07:20.197Z,0.00
2019-03-19T01:08:20.111Z,0.00
2019-03-19T01:09:20.027Z,0.00
2019-03-19T01:10:19.944Z,0.00
2019-03-19T01:11:19.860Z,0.00
2019-03-19T01:12:19.774Z,0.00
2019-03-19T01:13:19.842Z,0.00
2019-03-19T01:14:19.610Z,0.00
2019-03-19T01:15:19.532Z,0.00
2019-03-19T01:16:19.440Z,0.00
2019-03-19T01:17:19.357Z,0.00
2019-03-19T01:18:19.275Z,0.00
2019-03-19T01:19:19.190Z,0.00
2019-03-19T01:20:19.104Z,0.00
2019-03-19T01:21:19.021Z,0.00
2019-03-19T01:22:18.938Z,0.00
2019-03-19T01:23:18.853Z,0.00
2019-03-19T01:24:18.770Z,0.00
2019-03-19T01:25:18.843Z,0.00
2019-03-19T01:26:18.601Z,0.00
2019-03-19T01:27:18.525Z,0.00
2019-03-19T01:28:18.434Z,0.00
2019-03-19T01:29:18.401Z,0.00
2019-03-19T01:30:18.267Z,0.00
2019-03-19T01:31:18.181Z,0.00
2019-03-19T01:32:18.098Z,0.00
2019-03-19T01:33:18.012Z,0.00
2019-03-19T01:34:17.930Z,0.00
2019-03-19T01:35:17.895Z,0.00
2019-03-19T01:36:17.760Z,0.00
2019-03-19T01:37:17.676Z,0.00
2019-03-19T01:38:17.593Z,0.00
2019-03-19T01:39:17.509Z,0.00
2019-03-19T01:40:17.471Z,0.00
2019-03-19T01:41:17.344Z,0.00
2019-03-19T01:42:17.256Z,0.00
2019-03-19T01:43:17.172Z,0.00
2019-03-19T01:44:17.090Z,0.00
2019-03-19T01:45:17.004Z,0.00
2019-03-19T01:46:16.921Z,0.00
2019-03-19T01:47:16.837Z,0.00
2019-03-19T01:48:16.751Z,0.00
2019-03-19T01:49:16.667Z,0.00
2019-03-19T01:50:16.584Z,0.00
2019-03-19T01:51:16.499Z,0.00
2019-03-19T01:52:16.414Z,0.00
2019-03-19T01:53:16.332Z,0.00
2019-03-19T01:54:16.251Z,0.00
2019-03-19T01:55:16.162Z,0.00
2019-03-19T01:56:16.077Z,0.00
2019-03-19T01:57:15.993Z,0.00
2019-03-19T01:58:15.909Z,0.00
2019-03-19T01:59:15.824Z,0.00
2019-03-19T02:00:15.742Z,0.00
2019-03-19T02:01:15.655Z,0.00
2019-03-19T02:02:15.572Z,0.00
2019-03-19T02:03:15.487Z,0.00
2019-03-19T02:04:15.401Z,0.00
2019-03-19T02:05:15.319Z,0.00
2019-03-19T02:06:15.234Z,0.00
2019-03-19T02:07:15.149Z,0.00
2019-03-19T02:08:15.064Z,0.00
2019-03-19T02:09:14.981Z,0.00
2019-03-19T02:10:14.898Z,0.00
2019-03-19T02:11:14.811Z,0.00
2019-03-19T02:12:14.728Z,0.00
2019-03-19T02:13:14.641Z,0.00
2019-03-19T02:14:14.558Z,0.00
2019-03-19T02:15:14.476Z,0.00
2019-03-19T02:16:14.389Z,0.00
2019-03-19T02:17:14.405Z,0.00
2019-03-19T02:18:14.220Z,0.00
2019-03-19T02:19:14.138Z,0.00
2019-03-19T02:20:14.051Z,0.00
2019-03-19T02:21:13.966Z,0.00
2019-03-19T02:22:13.882Z,0.00
2019-03-19T02:23:13.799Z,0.00
2019-03-19T02:24:13.714Z,0.00
2019-03-19T02:25:13.635Z,0.00
2019-03-19T02:26:16.863Z,0.00
2019-03-19T02:27:13.460Z,0.00
2019-03-19T02:28:13.377Z,0.00
2019-03-19T02:29:13.297Z,0.00
2019-03-19T02:30:13.224Z,0.00
2019-03-19T02:31:13.122Z,0.00
2019-03-19T02:32:13.138Z,0.00
2019-03-19T02:33:12.956Z,0.00
2019-03-19T02:34:12.870Z,0.00
2019-03-19T02:35:12.812Z,0.00
2019-03-19T02:36:12.699Z,0.00
2019-03-19T02:37:12.615Z,0.00
2019-03-19T02:38:12.534Z,0.00
2019-03-19T02:39:12.447Z,0.00
2019-03-19T02:40:12.362Z,0.00
2019-03-19T02:41:12.276Z,0.00
2019-03-19T02:42:12.192Z,0.00
2019-03-19T02:43:12.107Z,0.00
2019-03-19T02:44:12.124Z,0.00
2019-03-19T02:45:11.965Z,0.00
2019-03-19T02:46:11.855Z,0.00
2019-03-19T02:47:11.791Z,0.00
2019-03-19T02:48:11.699Z,0.00
2019-03-19T02:49:11.598Z,0.00
2019-03-19T02:50:11.514Z,0.00
2019-03-19T02:51:11.428Z,0.00
2019-03-19T02:52:11.351Z,0.00
2019-03-19T02:53:11.270Z,0.00
2019-03-19T02:54:11.183Z,0.00
2019-03-19T02:55:11.093Z,0.00
2019-03-19T02:56:11.004Z,0.00
2019-03-19T02:57:10.919Z,0.00
2019-03-19T02:58:10.835Z,0.00
2019-03-19T02:59:10.750Z,0.00
2019-03-19T03:00:10.715Z,0.00
2019-03-19T03:01:10.586Z,0.00
2019-03-19T03:02:10.505Z,0.00
2019-03-19T03:03:10.419Z,0.00
2019-03-19T03:04:10.327Z,0.00
2019-03-19T03:05:10.240Z,0.00
2019-03-19T03:06:10.158Z,0.00
2019-03-19T03:07:10.074Z,0.00
2019-03-19T03:08:09.991Z,0.00
2019-03-19T03:09:09.912Z,0.00
2019-03-19T03:10:09.815Z,0.00
2019-03-19T03:11:09.732Z,0.00
2019-03-19T03:12:09.645Z,0.00
2019-03-19T03:13:09.563Z,0.00
2019-03-19T03:14:09.476Z,0.00
2019-03-19T03:15:09.749Z,0.00
2019-03-19T03:16:09.311Z,0.00
2019-03-19T03:17:09.220Z,0.00
2019-03-19T03:18:09.145Z,0.00
2019-03-19T03:19:09.052Z,0.00
2019-03-19T03:20:08.966Z,0.00
2019-03-19T03:21:08.990Z,0.00
2019-03-19T03:22:08.797Z,0.00
2019-03-19T03:23:08.713Z,0.00
2019-03-19T03:24:08.627Z,0.00
2019-03-19T03:25:08.542Z,0.00
2019-03-19T03:26:08.456Z,0.00
2019-03-19T03:27:08.428Z,0.00
2019-03-19T03:28:08.287Z,0.00
2019-03-19T03:29:08.203Z,0.00
2019-03-19T03:30:08.147Z,0.00
2019-03-19T03:31:08.033Z,0.00
2019-03-19T03:32:07.947Z,0.00
2019-03-19T03:33:07.919Z,0.00
2019-03-19T03:34:07.781Z,0.00
2019-03-19T03:35:07.696Z,0.00
2019-03-19T03:36:07.606Z,0.00
2019-03-19T03:37:07.522Z,0.00
2019-03-19T03:38:07.440Z,0.00
2019-03-19T03:39:07.353Z,0.00
2019-03-19T03:40:07.268Z,0.00
2019-03-19T03:41:07.182Z,0.00
2019-03-19T03:42:07.097Z,0.00
2019-03-19T03:43:07.016Z,0.00
2019-03-19T03:44:06.926Z,0.00
2019-03-19T03:45:06.847Z,0.00
2019-03-19T03:46:06.760Z,0.00
2019-03-19T03:47:06.673Z,0.00
2019-03-19T03:48:06.588Z,0.00
2019-03-19T03:49:06.506Z,0.00
2019-03-19T03:50:06.418Z,0.00
2019-03-19T03:51:06.332Z,0.00
2019-03-19T03:52:06.247Z,0.00
2019-03-19T03:53:06.162Z,0.00
2019-03-19T03:54:06.082Z,0.00
2019-03-19T03:55:05.991Z,0.00
2019-03-19T03:56:05.909Z,0.00
2019-03-19T03:57:05.921Z,0.00
2019-03-19T03:58:05.736Z,0.00
2019-03-19T03:59:05.652Z,0.00
2019-03-19T04:00:05.567Z,0.00
2019-03-19T04:01:05.481Z,0.00
2019-03-19T04:02:05.397Z,0.00
2019-03-19T04:03:05.310Z,0.00
2019-03-19T04:04:05.230Z,0.00
2019-03-19T04:05:05.140Z,0.00
2019-03-19T04:06:05.055Z,0.00
2019-03-19T04:07:04.971Z,0.00
2019-03-19T04:08:04.883Z,0.00
2019-03-19T04:09:04.804Z,0.00
2019-03-19T04:10:04.715Z,0.00
2019-03-19T04:11:04.634Z,0.00
2019-03-19T04:12:04.544Z,0.00
2019-03-19T04:13:04.465Z,0.00
2019-03-19T04:14:04.374Z,0.00
2019-03-19T04:15:04.290Z,0.00
2019-03-19T04:16:04.204Z,0.00
2019-03-19T04:17:04.122Z,0.00
2019-03-19T04:18:04.033Z,0.00
2019-03-19T04:19:03.952Z,0.00
2019-03-19T04:20:03.864Z,0.00
2019-03-19T04:21:03.776Z,0.00
2019-03-19T04:22:03.698Z,0.00
2019-03-19T04:23:03.606Z,0.00
2019-03-19T04:24:03.522Z,0.00
2019-03-19T04:25:03.439Z,0.00
2019-03-19T04:26:03.401Z,0.00
2019-03-19T04:27:15.455Z,0.00
2019-03-19T04:28:03.181Z,0.00
2019-03-19T04:29:03.099Z,0.00
2019-03-19T04:30:03.011Z,0.00
2019-03-19T04:31:02.926Z,0.00
2019-03-19T04:32:02.840Z,0.00
2019-03-19T04:33:02.757Z,0.00
2019-03-19T04:34:02.669Z,0.00
2019-03-19T04:35:02.585Z,0.00
2019-03-19T04:36:02.508Z,0.00
2019-03-19T04:37:02.420Z,0.00
2019-03-19T04:38:02.333Z,0.00
2019-03-19T04:39:02.247Z,0.00
2019-03-19T04:40:02.170Z,0.00
2019-03-19T04:41:02.076Z,0.00
2019-03-19T04:42:01.993Z,0.00
2019-03-19T04:43:01.906Z,0.00
2019-03-19T04:44:01.817Z,0.00
2019-03-19T04:45:01.732Z,0.00
2019-03-19T04:46:01.646Z,0.00
2019-03-19T04:47:01.565Z,0.00
2019-03-19T04:48:03.518Z,0.00
2019-03-19T04:49:01.392Z,0.00
2019-03-19T04:50:01.310Z,0.00
2019-03-19T04:51:01.220Z,0.00
2019-03-19T04:52:01.146Z,0.00
2019-03-19T04:53:01.057Z,0.00
2019-03-19T04:54:00.966Z,0.00
2019-03-19T04:55:00.893Z,0.00
2019-03-19T04:56:00.794Z,0.00
2019-03-19T04:57:00.714Z,0.00
2019-03-19T04:58:00.625Z,0.00
2019-03-19T04:59:00.539Z,0.00
2019-03-19T05:00:00.453Z,0.00
2019-03-19T05:01:00.368Z,0.00
2019-03-19T05:02:00.282Z,0.00
2019-03-19T05:03:00.199Z,4.00
2019-03-19T05:04:00.111Z,4.00
2019-03-19T05:05:00.026Z,0.00
2019-03-19T05:05:59.941Z,4.00
2019-03-19T05:06:59.856Z,0.00
2019-03-19T05:07:59.770Z,4.00
2019-03-19T05:08:59.685Z,4.00
2019-03-19T05:09:59.600Z,8.00
2019-03-19T05:10:59.516Z,8.00
2019-03-19T05:11:59.433Z,8.00
2019-03-19T05:13:00.762Z,12.00
2019-03-19T05:13:59.260Z,12.00
2019-03-19T05:14:59.173Z,12.00
2019-03-19T05:15:59.087Z,16.00
2019-03-19T05:16:59.002Z,20.00
2019-03-19T05:17:58.919Z,20.00
2019-03-19T05:18:58.832Z,28.00
2019-03-19T05:19:58.745Z,28.00
2019-03-19T05:20:58.661Z,36.00
2019-03-19T05:21:58.575Z,40.00
2019-03-19T05:22:58.490Z,48.00
2019-03-19T05:23:58.404Z,56.00
2019-03-19T05:24:58.318Z,68.00
2019-03-19T05:25:58.234Z,76.00
2019-03-19T05:26:58.148Z,88.00
2019-03-19T05:27:58.063Z,96.00
2019-03-19T05:28:57.977Z,108.00
2019-03-19T05:29:57.892Z,120.00
2019-03-19T05:30:57.809Z,136.00
2019-03-19T05:31:57.720Z,148.00
2019-03-19T05:32:57.635Z,164.00
2019-03-19T05:33:57.560Z,176.00
2019-03-19T05:34:57.466Z,196.00
2019-03-19T05:35:57.381Z,212.00
2019-03-19T05:36:57.296Z,232.00
2019-03-19T05:37:57.209Z,252.00
2019-03-19T05:38:57.133Z,272.00
2019-03-19T05:39:57.039Z,292.00
2019-03-19T05:40:56.954Z,312.00
2019-03-19T05:41:56.867Z,332.00
2019-03-19T05:42:56.784Z,356.00
2019-03-19T05:43:56.696Z,376.00
2019-03-19T05:44:56.611Z,400.00
2019-03-19T05:45:56.527Z,420.00
2019-03-19T05:46:56.446Z,444.00
2019-03-19T05:47:56.354Z,468.00
2019-03-19T05:48:56.270Z,488.00
2019-03-19T05:49:56.192Z,512.00
2019-03-19T05:50:56.100Z,536.00
2019-03-19T05:51:56.013Z,556.00
2019-03-19T05:52:55.929Z,576.00
2019-03-19T05:53:55.842Z,600.00
2019-03-19T05:54:55.758Z,620.00
2019-03-19T05:55:55.672Z,640.00
2019-03-19T05:56:55.587Z,660.00
2019-03-19T05:57:55.501Z,680.00
2019-03-19T05:58:55.416Z,704.00
2019-03-19T05:59:55.330Z,720.00
2019-03-19T06:00:55.246Z,744.00
2019-03-19T06:01:55.162Z,764.00
2019-03-19T06:02:55.076Z,784.00
2019-03-19T06:03:54.991Z,804.00
2019-03-19T06:04:54.906Z,820.00
2019-03-19T06:05:54.822Z,840.00
2019-03-19T06:06:54.736Z,856.00
2019-03-19T06:07:54.651Z,876.00
2019-03-19T06:08:54.566Z,896.00
2019-03-19T06:09:54.482Z,908.00
2019-03-19T06:10:54.397Z,928.00
2019-03-19T06:11:54.310Z,948.00
2019-03-19T06:12:54.325Z,964.00
2019-03-19T06:13:54.140Z,980.00
2019-03-19T06:14:54.059Z,996.00
2019-03-19T06:15:53.969Z,1012.00
2019-03-19T06:16:53.885Z,1024.00
2019-03-19T06:17:53.799Z,1044.00
2019-03-19T06:18:53.714Z,1056.00
2019-03-19T06:19:53.631Z,1072.00
2019-03-19T06:20:53.542Z,1088.00
2019-03-19T06:21:53.463Z,1104.00
2019-03-19T06:22:53.374Z,1124.00
2019-03-19T06:23:53.290Z,1136.00
2019-03-19T06:24:53.204Z,1152.00
2019-03-19T06:25:53.133Z,1168.00
2019-03-19T06:26:53.033Z,1184.00
2019-03-19T06:28:00.201Z,1200.00
2019-03-19T06:28:52.862Z,1212.00
2019-03-19T06:29:52.779Z,1224.00
2019-03-19T06:30:52.700Z,1236.00
2019-03-19T06:31:52.606Z,1252.00
2019-03-19T06:32:52.622Z,1268.00
2019-03-19T06:33:52.437Z,1296.00
2019-03-19T06:34:52.353Z,1336.00
2019-03-19T06:35:52.271Z,1416.00
2019-03-19T06:36:52.181Z,1404.00
2019-03-19T06:37:52.097Z,1384.00
2019-03-19T06:38:52.011Z,1388.00
2019-03-19T06:39:51.926Z,1388.00
2019-03-19T06:40:51.847Z,1392.00
2019-03-19T06:41:51.758Z,1400.00
2019-03-19T06:42:51.672Z,1404.00
2019-03-19T06:43:51.585Z,1416.00
2019-03-19T06:44:51.501Z,1424.00
2019-03-19T06:45:51.416Z,1440.00
2019-03-19T06:46:51.332Z,1452.00
2019-03-19T06:47:51.245Z,1476.00
2019-03-19T06:48:51.161Z,1492.00
2019-03-19T06:49:51.077Z,1512.00
2019-03-19T06:50:50.994Z,1528.00
2019-03-19T06:51:50.907Z,1548.00
2019-03-19T06:52:50.824Z,1564.00
2019-03-19T06:53:50.739Z,1584.00
2019-03-19T06:54:50.654Z,1600.00
2019-03-19T06:55:50.570Z,1620.00
2019-03-19T06:56:50.485Z,1636.00
2019-03-19T06:57:50.405Z,1656.00
2019-03-19T06:58:50.420Z,1672.00
2019-03-19T06:59:50.231Z,1688.00
2019-03-19T07:00:50.147Z,1700.00
2019-03-19T07:01:50.062Z,1712.00
2019-03-19T07:02:49.979Z,1724.00
2019-03-19T07:03:49.893Z,1732.00
2019-03-19T07:04:49.808Z,1744.00
2019-03-19T07:05:49.724Z,1748.00
2019-03-19T07:06:49.641Z,1760.00
2019-03-19T07:07:49.556Z,1772.00
2019-03-19T07:08:49.470Z,1784.00
2019-03-19T07:09:49.387Z,1796.00
2019-03-19T07:10:49.304Z,1808.00
2019-03-19T07:11:49.219Z,1820.00
2019-03-19T07:12:49.136Z,1832.00
2019-03-19T07:13:49.076Z,1844.00
2019-03-19T07:14:48.969Z,1852.00
2019-03-19T07:15:48.884Z,1864.00
2019-03-19T07:16:48.799Z,1872.00
2019-03-19T07:17:48.716Z,1880.00
2019-03-19T07:18:48.732Z,1888.00
2019-03-19T07:19:48.548Z,1892.00
2019-03-19T07:20:48.463Z,1900.00
2019-03-19T07:21:48.382Z,1908.00
2019-03-19T07:22:48.321Z,1916.00
2019-03-19T07:23:48.213Z,1924.00
2019-03-19T07:24:48.308Z,1932.00
2019-03-19T07:25:48.046Z,1936.00
2019-03-19T07:26:47.963Z,1944.00
2019-03-19T07:27:47.879Z,1952.00
2019-03-19T07:28:47.796Z,1960.00
2019-03-19T07:29:47.712Z,1964.00
2019-03-19T07:30:47.629Z,1972.00
2019-03-19T07:31:47.545Z,1980.00
2019-03-19T07:32:47.463Z,1984.00
2019-03-19T07:33:47.380Z,1996.00
2019-03-19T07:34:47.297Z,2000.00
2019-03-19T07:35:47.212Z,2008.00
2019-03-19T07:36:47.129Z,2012.00
2019-03-19T07:37:47.047Z,2024.00
2019-03-19T07:38:46.964Z,2028.00
2019-03-19T07:39:46.879Z,2040.00
2019-03-19T07:40:46.797Z,2056.00
2019-03-19T07:41:46.715Z,2056.00
2019-03-19T07:42:46.634Z,2060.00
2019-03-19T07:43:46.550Z,2068.00
2019-03-19T07:44:46.467Z,2076.00
2019-03-19T07:45:46.383Z,2080.00
2019-03-19T07:46:46.301Z,2084.00
2019-03-19T07:47:46.227Z,2096.00
2019-03-19T07:48:46.134Z,2104.00
2019-03-19T07:49:46.052Z,2112.00
2019-03-19T07:50:45.970Z,2120.00
2019-03-19T07:51:45.885Z,2132.00
2019-03-19T07:52:45.803Z,2136.00
2019-03-19T07:53:45.720Z,2148.00
2019-03-19T07:54:45.637Z,2160.00
2019-03-19T07:55:45.555Z,2168.00
2019-03-19T07:56:45.475Z,2176.00
2019-03-19T07:57:45.392Z,2188.00
2019-03-19T07:58:45.814Z,2204.00
2019-03-19T07:59:45.224Z,2216.00
2019-03-19T08:00:45.141Z,2228.00
2019-03-19T08:01:45.061Z,2236.00
2019-03-19T08:02:44.978Z,2248.00
2019-03-19T08:03:44.896Z,2260.00
2019-03-19T08:04:44.812Z,2272.00
2019-03-19T08:05:44.730Z,2280.00
2019-03-19T08:06:44.648Z,2288.00
2019-03-19T08:07:44.566Z,2296.00
2019-03-19T08:08:44.583Z,2312.00
2019-03-19T08:09:44.402Z,2324.00
2019-03-19T08:10:44.320Z,2332.00
2019-03-19T08:11:44.237Z,2344.00
2019-03-19T08:12:44.155Z,2352.00
2019-03-19T08:13:44.073Z,2364.00
2019-03-19T08:14:44.064Z,2368.00
2019-03-19T08:15:43.909Z,2380.00
2019-03-19T08:16:43.827Z,2388.00
2019-03-19T08:17:43.751Z,2404.00
2019-03-19T08:18:43.664Z,2408.00
2019-03-19T08:19:43.582Z,2420.00
2019-03-19T08:20:43.499Z,2428.00
2019-03-19T08:21:43.418Z,2436.00
2019-03-19T08:22:43.338Z,2452.00
2019-03-19T08:23:43.256Z,2464.00
2019-03-19T08:24:43.173Z,2468.00
2019-03-19T08:25:43.091Z,2480.00
2019-03-19T08:26:43.011Z,2488.00
2019-03-19T08:27:42.929Z,2492.00
2019-03-19T08:28:42.846Z,2500.00
2019-03-19T08:29:42.770Z,2508.00
2019-03-19T08:30:42.684Z,2516.00
2019-03-19T08:31:42.602Z,2516.00
2019-03-19T08:32:42.522Z,2524.00
2019-03-19T08:33:42.440Z,2532.00
2019-03-19T08:34:42.360Z,2544.00
2019-03-19T08:35:42.278Z,2548.00
2019-03-19T08:36:42.197Z,2564.00
2019-03-19T08:37:42.116Z,2568.00
2019-03-19T08:38:42.036Z,2568.00
2019-03-19T08:39:41.952Z,2576.00
2019-03-19T08:40:41.875Z,2584.00
2019-03-19T08:41:41.791Z,2592.00
2019-03-19T08:42:41.709Z,2600.00
2019-03-19T08:43:41.631Z,2608.00
2019-03-19T08:44:41.548Z,2616.00
2019-03-19T08:45:41.469Z,2620.00
2019-03-19T08:46:41.385Z,2636.00
2019-03-19T08:47:41.303Z,2648.00
2019-03-19T08:48:41.224Z,2648.00
2019-03-19T08:49:41.146Z,2660.00
2019-03-19T08:50:41.062Z,2668.00
2019-03-19T08:51:40.980Z,2672.00
2019-03-19T08:52:40.900Z,2220.00
2019-03-19T08:53:40.818Z,2232.00
2019-03-19T08:54:40.737Z,2232.00
2019-03-19T08:55:40.659Z,2484.00
2019-03-19T08:56:40.574Z,2352.00
2019-03-19T08:57:40.562Z,2396.00
2019-03-19T08:58:40.415Z,2708.00
2019-03-19T08:59:40.330Z,2696.00
2019-03-19T09:00:40.249Z,2352.00
2019-03-19T09:01:40.169Z,2276.00
2019-03-19T09:02:40.089Z,2352.00
2019-03-19T09:03:40.006Z,2384.00
2019-03-19T09:04:40.128Z,2428.00
2019-03-19T09:05:39.851Z,2904.00
2019-03-19T09:06:39.765Z,2908.00
2019-03-19T09:07:39.682Z,2932.00
2019-03-19T09:08:39.621Z,2944.00
2019-03-19T09:09:39.521Z,2952.00
2019-03-19T09:10:39.440Z,2896.00
2019-03-19T09:11:39.359Z,2852.00
2019-03-19T09:12:39.280Z,2952.00
2019-03-19T09:13:39.203Z,2968.00
2019-03-19T09:14:39.119Z,2988.00
2019-03-19T09:15:39.037Z,3004.00
2019-03-19T09:16:38.958Z,3020.00
2019-03-19T09:17:38.883Z,3016.00
2019-03-19T09:18:38.797Z,3020.00
2019-03-19T09:19:38.717Z,3024.00
2019-03-19T09:20:38.636Z,3032.00
2019-03-19T09:21:38.556Z,3048.00
2019-03-19T09:22:38.476Z,3060.00
2019-03-19T09:23:38.394Z,3068.00
2019-03-19T09:24:38.315Z,3068.00
2019-03-19T09:25:38.232Z,3068.00
2019-03-19T09:26:38.153Z,3056.00
2019-03-19T09:27:38.077Z,3100.00
2019-03-19T09:28:37.992Z,3112.00
2019-03-19T09:29:37.912Z,3136.00
2019-03-19T09:30:37.833Z,3168.00
2019-03-19T09:31:37.749Z,3196.00
2019-03-19T09:32:37.670Z,3244.00
2019-03-19T09:33:37.590Z,3112.00
2019-03-19T09:34:37.511Z,3264.00
2019-03-19T09:35:37.434Z,3292.00
2019-03-19T09:36:37.349Z,3288.00
2019-03-19T09:37:44.099Z,3280.00
2019-03-19T09:38:37.189Z,3320.00
2019-03-19T09:39:37.108Z,3336.00
2019-03-19T09:40:37.029Z,3040.00
2019-03-19T09:41:36.948Z,3340.00
2019-03-19T09:42:36.869Z,2988.00
2019-03-19T09:43:36.787Z,2832.00
2019-03-19T09:44:36.709Z,2768.00
2019-03-19T09:45:36.628Z,2752.00
2019-03-19T09:46:36.548Z,2720.00
2019-03-19T09:47:38.500Z,2712.00
2019-03-19T09:48:36.393Z,2684.00
2019-03-19T09:49:36.307Z,2784.00
2019-03-19T09:50:36.230Z,2804.00
2019-03-19T09:51:36.149Z,2868.00
2019-03-19T09:52:36.068Z,2996.00
2019-03-19T09:53:35.986Z,3116.00
2019-03-19T09:54:35.907Z,3084.00
2019-03-19T09:55:35.825Z,3148.00
2019-03-19T09:56:35.745Z,3420.00
2019-03-19T09:57:35.664Z,3596.00
2019-03-19T09:58:35.584Z,3616.00
2019-03-19T09:59:35.510Z,3632.00
2019-03-19T10:00:35.422Z,3612.00
2019-03-19T10:01:35.343Z,3628.00
2019-03-19T10:02:35.262Z,3652.00
2019-03-19T10:03:35.184Z,3688.00
2019-03-19T10:04:35.104Z,3736.00
2019-03-19T10:05:35.021Z,3776.00
2019-03-19T10:06:34.942Z,3808.00
2019-03-19T10:07:34.863Z,3820.00
2019-03-19T10:08:34.785Z,3876.00
2019-03-19T10:09:34.704Z,3980.00
2019-03-19T10:10:34.697Z,4084.00
2019-03-19T10:11:34.543Z,3968.00
2019-03-19T10:12:34.464Z,10500.00
2019-03-19T10:13:34.384Z,19456.00
2019-03-19T10:14:34.305Z,20832.00
2019-03-19T10:15:34.226Z,18784.00
2019-03-19T10:16:34.147Z,13084.00
2019-03-19T10:17:34.068Z,17440.00
2019-03-19T10:18:33.988Z,25600.00
2019-03-19T10:19:33.906Z,26752.00
2019-03-19T10:20:33.828Z,17344.00
2019-03-19T10:21:33.754Z,21824.00
2019-03-19T10:22:33.670Z,23264.00
2019-03-19T10:23:33.591Z,22048.00
2019-03-19T10:24:33.516Z,13288.00
2019-03-19T10:25:33.438Z,13448.00
2019-03-19T10:26:33.357Z,13752.00
2019-03-19T10:27:33.279Z,14504.00
2019-03-19T10:28:33.203Z,11080.00
2019-03-19T10:29:38.230Z,8200.00
2019-03-19T10:30:33.046Z,8584.00
2019-03-19T10:31:32.965Z,8688.00
2019-03-19T10:32:32.887Z,11676.00
2019-03-19T10:33:32.811Z,13412.00
2019-03-19T10:34:32.732Z,14260.00
2019-03-19T10:35:32.654Z,13520.00
2019-03-19T10:36:32.575Z,12412.00
2019-03-19T10:37:32.497Z,12604.00
2019-03-19T10:38:32.421Z,14944.00
2019-03-19T10:39:32.344Z,9868.00
2019-03-19T10:40:32.265Z,5724.00
2019-03-19T10:41:32.188Z,7004.00
2019-03-19T10:42:32.112Z,8380.00
2019-03-19T10:43:32.036Z,6924.00
2019-03-19T10:44:31.958Z,5508.00
2019-03-19T10:45:31.882Z,7964.00
2019-03-19T10:46:31.812Z,8376.00
2019-03-19T10:47:31.727Z,5780.00
2019-03-19T10:48:31.651Z,7572.00
2019-03-19T10:49:31.574Z,12028.00
2019-03-19T10:50:31.499Z,13304.00
2019-03-19T10:51:31.427Z,14700.00
2019-03-19T10:52:31.346Z,17856.00
2019-03-19T10:53:31.270Z,20256.00
2019-03-19T10:54:31.197Z,21376.00
2019-03-19T10:55:31.119Z,18112.00
2019-03-19T10:56:31.043Z,25344.00
2019-03-19T10:57:30.968Z,44544.00
2019-03-19T10:58:30.893Z,47232.00
2019-03-19T10:59:30.817Z,51296.00
2019-03-19T11:00:30.743Z,62176.00
2019-03-19T11:01:30.671Z,54048.00
2019-03-19T11:02:30.595Z,49024.00
2019-03-19T11:03:30.520Z,44032.00
2019-03-19T11:04:30.445Z,46880.00
2019-03-19T11:05:30.372Z,39168.00
2019-03-19T11:06:30.301Z,36128.00
2019-03-19T11:07:30.228Z,34048.00
2019-03-19T11:08:30.153Z,39456.00
2019-03-19T11:09:30.079Z,35104.00
2019-03-19T11:10:30.009Z,52416.00
2019-03-19T11:11:29.935Z,45088.00
2019-03-19T11:12:29.860Z,55936.00
2019-03-19T11:13:29.787Z,56192.00
2019-03-19T11:14:29.714Z,63424.00
2019-03-19T11:15:31.650Z,64640.00
2019-03-19T11:16:29.568Z,69184.00
2019-03-19T11:17:29.495Z,20480.00
2019-03-19T11:18:29.422Z,49248.00
2019-03-19T11:19:29.350Z,30176.00
2019-03-19T11:20:29.279Z,57568.00
2019-03-19T11:21:29.210Z,56896.00
2019-03-19T11:22:29.142Z,68064.00
2019-03-19T11:23:29.061Z,71136.00
2019-03-19T11:24:28.988Z,75904.00
2019-03-19T11:25:28.918Z,76704.00
2019-03-19T11:26:28.848Z,80480.00
2019-03-19T11:27:28.773Z,86720.00
2019-03-19T11:28:28.703Z,77632.00
2019-03-19T11:29:28.784Z,70848.00
2019-03-19T11:30:28.563Z,75040.00
2019-03-19T11:31:28.491Z,87552.00
2019-03-19T11:32:28.421Z,87424.00
2019-03-19T11:33:28.351Z,86240.00
2019-03-19T11:34:28.283Z,77536.00
2019-03-19T11:35:28.266Z,78656.00
2019-03-19T11:36:28.148Z,80992.00
2019-03-19T11:37:28.072Z,91072.00
2019-03-19T11:38:28.005Z,93664.00
2019-03-19T11:39:27.936Z,90016.00
2019-03-19T11:40:27.867Z,86016.00
2019-03-19T11:41:27.797Z,87008.00
2019-03-19T11:42:27.729Z,80992.00
2019-03-19T11:43:27.660Z,77952.00
2019-03-19T11:44:27.592Z,77216.00
2019-03-19T11:45:27.524Z,80064.00
2019-03-19T11:46:27.456Z,84160.00
2019-03-19T11:47:27.389Z,83200.00
2019-03-19T11:48:27.320Z,86496.00
2019-03-19T11:49:27.252Z,88704.00
2019-03-19T11:50:27.186Z,90752.00
2019-03-19T11:51:27.117Z,90880.00
2019-03-19T11:52:27.050Z,92960.00
2019-03-19T11:53:26.983Z,94112.00
2019-03-19T11:54:26.917Z,92384.00
2019-03-19T11:55:26.849Z,92096.00
2019-03-19T11:56:26.783Z,94496.00
2019-03-19T11:57:26.720Z,90912.00
2019-03-19T11:58:26.651Z,89856.00
2019-03-19T11:59:26.584Z,92032.00
2019-03-19T12:00:26.522Z,91744.00
2019-03-19T12:01:26.452Z,92864.00
2019-03-19T12:02:26.513Z,93120.00
2019-03-19T12:03:26.319Z,91552.00
2019-03-19T12:04:26.259Z,92800.00
2019-03-19T12:05:26.190Z,91104.00
2019-03-19T12:06:26.122Z,91168.00
2019-03-19T12:07:26.058Z,93024.00
2019-03-19T12:08:25.992Z,94944.00
2019-03-19T12:09:25.927Z,93888.00
2019-03-19T12:10:25.873Z,92608.00
2019-03-19T12:11:25.796Z,90432.00
2019-03-19T12:12:25.731Z,93408.00
2019-03-19T12:13:25.666Z,96384.00
2019-03-19T12:14:25.602Z,96608.00
2019-03-19T12:15:25.535Z,96608.00
2019-03-19T12:16:25.474Z,94144.00
2019-03-19T12:17:25.407Z,94048.00
2019-03-19T12:18:25.341Z,93088.00
2019-03-19T12:19:25.275Z,95200.00
2019-03-19T12:20:25.210Z,96224.00
2019-03-19T12:21:25.145Z,94272.00
2019-03-19T12:22:25.087Z,93312.00
2019-03-19T12:23:25.016Z,91648.00
2019-03-19T12:24:24.950Z,92192.00
2019-03-19T12:25:24.894Z,93600.00
2019-03-19T12:26:24.821Z,92288.00
2019-03-19T12:27:24.758Z,93184.00
2019-03-19T12:28:24.692Z,93472.00
2019-03-19T12:29:24.626Z,92992.00
2019-03-19T12:30:26.342Z,91936.00
2019-03-19T12:31:24.557Z,90592.00